Clarkston, Washington
Current Conditions -  °F | °C
As of 10:56 PM on Thursday 27 Nov 2014 (Local Time) from KLWS Reporting Station
Overcast Overcast  
Wind Chill: 14°   Ceiling: 6000
Heat Index: 14°   Visibility: 10mi
Dew Point:   Wind: 20mph
Humidity: 58%   Direction: 200°SSW
Pressure: 29.79"   Gusts: NA
Location:  46.41°N, 117.04°W
Report Text: KLWS 280656Z AUTO 20017KT 10SM OVC060 14/06 A2979 RMK AO2 SLP086 T01440061
Loading
Personal Weather Stations






























Interactive Weather Map New forecast layout! Learn more

10-Day Weather Forecast

Advertisements
Track Severe Weather on mobile